HEAX 060900Z 35009KT 9999 SCT020 28/15 Q1017 NOSIG
From batch tds/metars/production/2022/10/6/h09_m29_metars.cache.csv.gz
Observed at (about 1 hour ago)
Identifier HEAX
HEAX 060800Z 31006KT 9999 SCT020 26/17 Q1017
From batch tds/metars/production/2022/10/6/h08_m51_metars.cache.csv.gz
Observed at (about 2 hours ago)
Identifier HEAX
HEAX 060700Z 33009KT 9999 SCT020 25/17 Q1017 NOSIG
From batch tds/metars/production/2022/10/6/h07_m52_metars.cache.csv.gz
Observed at (about 3 hours ago)
Identifier HEAX
HEAX 051700Z 35006KT CAVOK 26/19 Q1016 NOSIG
From batch tds/metars/production/2022/10/5/h17_m55_metars.cache.csv.gz
Observed at (about 17 hours ago)
Identifier HEAX
HEAX 051600Z 36009KT 9999 FEW020 27/18 Q1016 NOSIG
From batch tds/metars/production/2022/10/5/h16_m21_metars.cache.csv.gz
Observed at (about 18 hours ago)
Identifier HEAX
HEAX 051500Z 35008KT 9999 FEW020 27/18 Q1016 NOSIG
From batch tds/metars/production/2022/10/5/h15_m53_metars.cache.csv.gz
Observed at (about 19 hours ago)
Identifier HEAX
HEAX 051400Z 34009KT 9999 SCT020 27/18 Q1016 NOSIG
From batch tds/metars/production/2022/10/5/h14_m27_metars.cache.csv.gz
Observed at (about 20 hours ago)
Identifier HEAX
HEAX 051300Z 35008KT 9999 SCT020 28/18 Q1016 NOSIG
From batch tds/metars/production/2022/10/5/h13_m28_metars.cache.csv.gz
Observed at (about 21 hours ago)
Identifier HEAX
HEAX 051200Z 36008KT 9999 SCT020 29/19 Q1016 NOSIG
From batch tds/metars/production/2022/10/5/h12_m29_metars.cache.csv.gz
Observed at (about 22 hours ago)
Identifier HEAX
HEAX 051100Z 34008KT 9999 SCT020 27/16 Q1016 NOSIG
From batch tds/metars/production/2022/10/5/h11_m28_metars.cache.csv.gz
Observed at (about 23 hours ago)
Identifier HEAX
HEAX 041100Z 31007KT 9999 FEW020 29/17 Q1011
From batch tds/metars/production/2022/10/4/h11_m23_metars.cache.csv.gz
Observed at (2 days ago)
Identifier HEAX
HEAX 021800Z 33009KT CAVOK 28/23 Q1010 NOSIG
From batch tds/metars/production/2022/10/2/h18_m29_metars.cache.csv.gz
Observed at (4 days ago)
Identifier HEAX
HEAX 021700Z 33009KT CAVOK 28/22 Q1010 NOSIG
From batch tds/metars/production/2022/10/2/h17_m25_metars.cache.csv.gz
Observed at (4 days ago)
Identifier HEAX
HEAX 021600Z 32008KT CAVOK 29/22 Q1010
From batch tds/metars/production/2022/10/2/h16_m55_metars.cache.csv.gz
Observed at (4 days ago)
Identifier HEAX
HEAX 021500Z 32009KT CAVOK 30/22 Q1010 NOSIG
From batch tds/metars/production/2022/10/2/h15_m55_metars.cache.csv.gz
Observed at (4 days ago)
Identifier HEAX
HEAX 021400Z 31013KT CAVOK 31/22 Q1010 NOSIG
From batch tds/metars/production/2022/10/2/h14_m21_metars.cache.csv.gz
Observed at (4 days ago)
Identifier HEAX
HEAX 021300Z 32041KT CAVOK 32/22 Q1010 NOSIG
From batch tds/metars/production/2022/10/2/h13_m51_metars.cache.csv.gz
Observed at (4 days ago)
Identifier HEAX
HEAX 021200Z 32010KT CAVOK 32/22 Q1011 NOSIG
From batch tds/metars/production/2022/10/2/h12_m50_metars.cache.csv.gz
Observed at (4 days ago)
Identifier HEAX
HEAX 021100Z 30006KT CAVOK 31/22 Q1011 NOSIG
From batch tds/metars/production/2022/10/2/h11_m27_metars.cache.csv.gz
Observed at (4 days ago)
Identifier HEAX
HEAX 021000Z 33006KT CAVOK 32/23 Q1012 NOSIG
From batch tds/metars/production/2022/10/2/h10_m24_metars.cache.csv.gz
Observed at (4 days ago)
Identifier HEAX
HEAX 020900Z 31007KT CAVOK 31/23 Q1013 NOSIG
From batch tds/metars/production/2022/10/2/h09_m54_metars.cache.csv.gz
Observed at (4 days ago)
Identifier HEAX
HEAX 020800Z 32005KT CAVOK 31/22 Q1013 NOSIG
From batch tds/metars/production/2022/10/2/h08_m20_metars.cache.csv.gz
Observed at (4 days ago)
Identifier HEAX
HEAX 020700Z 32006KT CAVOK 29/23 Q1013 NOSIG
From batch tds/metars/production/2022/10/2/h07_m57_metars.cache.csv.gz
Observed at (4 days ago)
Identifier HEAX
HEAX 011200Z 36005KT CAVOK 36/18 Q1018 NOSIG
From batch tds/metars/production/2022/10/1/h12_m54_metars.cache.csv.gz
Observed at (5 days ago)
Identifier HEAX
HEAX 011100Z 34007KT CAVOK 36/19 Q1018 NOSIG
From batch tds/metars/production/2022/10/1/h11_m59_metars.cache.csv.gz
Observed at (5 days ago)
Identifier HEAX
HEAX 011000Z 35006KT CAVOK 35/19 Q1018 NOSIG
From batch tds/metars/production/2022/10/1/h10_m25_metars.cache.csv.gz
Observed at (5 days ago)
Identifier HEAX
talk